createdAt,value
2023-03-11T00:01:33.161Z,9.70
2023-03-11T00:04:08.334Z,9.70
2023-03-11T00:06:43.707Z,9.70
2023-03-11T00:09:18.192Z,9.70
2023-03-11T00:11:52.908Z,9.70
2023-03-11T00:14:27.254Z,9.70
2023-03-11T00:17:01.685Z,9.70
2023-03-11T00:19:37.475Z,9.70
2023-03-11T00:22:16.835Z,9.70
2023-03-11T00:24:55.834Z,9.70
2023-03-11T00:27:36.900Z,9.70
2023-03-11T00:30:24.860Z,9.70
2023-03-11T00:33:11.402Z,9.70
2023-03-11T00:35:55.579Z,9.70
2023-03-11T00:38:35.922Z,9.70
2023-03-11T00:41:11.072Z,9.70
2023-03-11T00:43:46.902Z,9.60
2023-03-11T00:46:21.764Z,9.62
2023-03-11T00:48:56.893Z,9.70
2023-03-11T00:51:33.839Z,9.70
2023-03-11T00:54:08.688Z,9.70
2023-03-11T00:56:43.089Z,9.70
2023-03-11T00:59:17.990Z,9.70
2023-03-11T01:01:52.727Z,9.70
2023-03-11T01:04:29.459Z,9.70
2023-03-11T01:07:03.743Z,9.70
2023-03-11T01:09:38.324Z,9.80
2023-03-11T01:12:12.630Z,9.80
2023-03-11T01:14:47.130Z,9.70
2023-03-11T01:17:22.782Z,9.70
2023-03-11T01:19:57.021Z,9.70
2023-03-11T01:22:31.333Z,9.60
2023-03-11T01:25:06.142Z,9.46
2023-03-11T01:27:40.437Z,9.30
2023-03-11T01:30:20.983Z,9.10
2023-03-11T01:32:57.418Z,8.92
2023-03-11T01:35:34.255Z,8.80
2023-03-11T01:38:08.457Z,8.70
2023-03-11T01:40:44.763Z,8.60
2023-03-11T01:43:54.690Z,8.50
2023-03-11T01:46:37.875Z,8.40
2023-03-11T01:49:17.287Z,8.32
2023-03-11T01:51:56.023Z,8.30
2023-03-11T01:54:35.395Z,8.30
2023-03-11T01:57:16.413Z,8.20
2023-03-11T01:59:57.208Z,8.20
2023-03-11T02:02:38.324Z,8.14
2023-03-11T02:05:13.384Z,8.10
2023-03-11T02:07:48.053Z,8.10
2023-03-11T02:10:24.139Z,8.04
2023-03-11T02:12:58.475Z,8.00
2023-03-11T02:15:35.244Z,8.00
2023-03-11T02:18:14.705Z,8.00
2023-03-11T02:20:58.808Z,7.98
2023-03-11T02:23:43.825Z,7.92
2023-03-11T02:26:26.215Z,7.90
2023-03-11T02:29:05.411Z,7.88
2023-03-11T02:31:43.315Z,7.80
2023-03-11T02:34:27.705Z,7.80
2023-03-11T02:37:02.688Z,7.74
2023-03-11T02:39:39.740Z,7.70
2023-03-11T02:42:19.885Z,7.70
2023-03-11T02:45:02.508Z,7.70
2023-03-11T02:47:39.383Z,7.62
2023-03-11T02:50:18.914Z,7.60
2023-03-11T02:52:54.592Z,7.60
2023-03-11T02:55:29.940Z,7.60
2023-03-11T02:58:04.647Z,7.60
2023-03-11T03:00:39.290Z,7.54
2023-03-11T03:03:14.521Z,7.50
2023-03-11T03:05:49.317Z,7.50
2023-03-11T03:08:23.602Z,7.50
2023-03-11T03:11:00.184Z,7.50
2023-03-11T03:13:34.519Z,7.50
2023-03-11T03:16:09.445Z,7.44
2023-03-11T03:18:44.062Z,7.40
2023-03-11T03:21:18.592Z,7.30
2023-03-11T03:23:53.288Z,7.00
2023-03-11T03:26:27.558Z,6.70
2023-03-11T03:29:01.717Z,6.50
2023-03-11T03:31:36.068Z,6.30
2023-03-11T03:34:11.329Z,6.10
2023-03-11T03:36:45.666Z,5.90
2023-03-11T03:39:20.286Z,5.80
2023-03-11T03:41:55.939Z,5.70
2023-03-11T03:44:31.055Z,5.58
2023-03-11T03:47:07.716Z,5.50
2023-03-11T03:49:42.383Z,5.40
2023-03-11T03:52:16.785Z,5.30
2023-03-11T03:54:51.133Z,5.30
2023-03-11T03:57:25.597Z,5.20
2023-03-11T04:00:00.035Z,5.20
2023-03-11T04:02:35.992Z,5.20
2023-03-11T04:05:12.261Z,5.16
2023-03-11T04:07:47.027Z,5.10
2023-03-11T04:10:21.968Z,5.10
2023-03-11T04:12:56.938Z,5.10
2023-03-11T04:15:32.116Z,5.00
2023-03-11T04:18:06.567Z,5.00
2023-03-11T04:20:43.840Z,4.96
2023-03-11T04:23:18.402Z,4.90
2023-03-11T04:25:52.645Z,4.80
2023-03-11T04:28:27.575Z,4.80
2023-03-11T04:31:02.340Z,4.78
2023-03-11T04:33:38.334Z,4.70
2023-03-11T04:36:14.640Z,4.70
2023-03-11T04:38:49.040Z,4.60
2023-03-11T04:41:24.196Z,4.58
2023-03-11T04:43:59.950Z,4.50
2023-03-11T04:46:34.187Z,4.40
2023-03-11T04:49:10.024Z,4.36
2023-03-11T04:51:45.332Z,4.30
2023-03-11T04:54:20.588Z,4.20
2023-03-11T04:56:54.849Z,4.20
2023-03-11T04:59:29.726Z,4.10
2023-03-11T05:02:04.622Z,4.06
2023-03-11T05:04:39.438Z,4.00
2023-03-11T05:07:13.897Z,3.90
2023-03-11T05:09:48.247Z,3.82
2023-03-11T05:12:22.778Z,3.78
2023-03-11T05:14:58.933Z,3.68
2023-03-11T05:17:33.179Z,3.60
2023-03-11T05:20:09.464Z,3.50
2023-03-11T05:22:43.989Z,3.40
2023-03-11T05:25:18.727Z,3.40
2023-03-11T05:27:53.557Z,3.30
2023-03-11T05:30:28.259Z,3.30
2023-03-11T05:33:04.423Z,3.20
2023-03-11T05:35:39.193Z,3.20
2023-03-11T05:38:13.882Z,3.20
2023-03-11T05:40:48.466Z,3.20
2023-03-11T05:43:23.057Z,3.20
2023-03-11T05:46:00.989Z,3.20
2023-03-11T05:48:36.437Z,3.20
2023-03-11T05:51:15.039Z,3.20
2023-03-11T05:53:51.929Z,3.20
2023-03-11T05:56:32.617Z,3.20
2023-03-11T05:59:07.367Z,3.20
2023-03-11T06:01:43.217Z,3.20
2023-03-11T06:04:18.106Z,3.20
2023-03-11T06:06:53.035Z,3.20
2023-03-11T06:09:28.402Z,3.20
2023-03-11T06:12:04.686Z,3.10
2023-03-11T06:14:48.587Z,3.10
2023-03-11T06:17:43.552Z,3.10
2023-03-11T06:20:26.025Z,3.02
2023-03-11T06:23:03.490Z,3.02
2023-03-11T06:25:46.563Z,3.00
2023-03-11T06:28:33.548Z,3.00
2023-03-11T06:31:22.898Z,3.00
2023-03-11T06:34:06.391Z,3.00
2023-03-11T06:36:44.288Z,3.00
2023-03-11T06:39:30.977Z,3.00
2023-03-11T06:42:14.134Z,3.00
2023-03-11T06:44:50.072Z,3.00
2023-03-11T06:47:24.564Z,3.00
2023-03-11T06:49:59.041Z,3.00
2023-03-11T06:52:34.191Z,3.00
2023-03-11T06:55:10.201Z,3.00
2023-03-11T06:57:45.938Z,3.00
2023-03-11T07:00:21.896Z,3.00
2023-03-11T07:02:59.935Z,3.00
2023-03-11T07:05:35.087Z,3.00
2023-03-11T07:08:15.236Z,3.04
2023-03-11T07:11:07.374Z,3.10
2023-03-11T07:13:42.208Z,3.10
2023-03-11T07:16:19.984Z,3.10
2023-03-11T07:18:56.729Z,3.16
2023-03-11T07:21:32.954Z,3.20
2023-03-11T07:24:08.805Z,3.20
2023-03-11T07:26:44.619Z,3.26
2023-03-11T07:29:20.987Z,3.30
2023-03-11T07:31:55.515Z,3.34
2023-03-11T07:34:29.796Z,3.40
2023-03-11T07:37:05.160Z,3.30
2023-03-11T07:39:40.480Z,3.30
2023-03-11T07:42:15.021Z,3.26
2023-03-11T07:44:51.582Z,3.20
2023-03-11T07:47:25.965Z,3.20
2023-03-11T07:50:02.544Z,3.20
2023-03-11T07:52:37.376Z,3.16
2023-03-11T07:55:12.789Z,3.10
2023-03-11T07:57:47.887Z,3.10
2023-03-11T08:00:24.451Z,3.10
2023-03-11T08:02:59.070Z,3.10
2023-03-11T08:05:36.464Z,3.10
2023-03-11T08:08:10.747Z,3.20
2023-03-11T08:10:45.256Z,3.20
2023-03-11T08:13:19.787Z,3.28
2023-03-11T08:15:53.972Z,3.30
2023-03-11T08:18:28.230Z,3.34
2023-03-11T08:21:07.711Z,3.40
2023-03-11T08:23:43.549Z,3.40
2023-03-11T08:26:21.689Z,3.48
2023-03-11T08:28:56.122Z,3.40
2023-03-11T08:31:33.299Z,3.42
2023-03-11T08:34:12.026Z,3.48
2023-03-11T08:36:46.648Z,3.44
2023-03-11T08:39:21.443Z,3.40
2023-03-11T08:41:55.999Z,3.34
2023-03-11T08:44:30.551Z,3.30
2023-03-11T08:47:05.276Z,3.20
2023-03-11T08:49:40.334Z,3.18
2023-03-11T08:52:16.076Z,3.10
2023-03-11T08:54:51.255Z,3.10
2023-03-11T08:57:25.915Z,3.10
2023-03-11T09:00:00.265Z,3.18
2023-03-11T09:02:35.188Z,3.22
2023-03-11T09:05:12.072Z,3.30
2023-03-11T09:07:46.740Z,3.30
2023-03-11T09:10:21.606Z,3.30
2023-03-11T09:12:56.140Z,3.38
2023-03-11T09:15:30.780Z,3.40
2023-03-11T09:18:05.448Z,3.40
2023-03-11T09:20:43.020Z,3.40
2023-03-11T09:23:20.969Z,3.42
2023-03-11T09:25:55.604Z,3.40
2023-03-11T09:28:30.102Z,3.40
2023-03-11T09:31:07.724Z,3.38
2023-03-11T09:33:47.043Z,3.40
2023-03-11T09:36:23.285Z,3.38
2023-03-11T09:38:57.476Z,3.40
2023-03-11T09:41:57.982Z,3.40
2023-03-11T09:44:42.893Z,3.48
2023-03-11T09:47:48.743Z,3.56
2023-03-11T09:50:36.763Z,3.70
2023-03-11T09:53:37.746Z,3.80
2023-03-11T09:56:17.087Z,3.82
2023-03-11T09:58:54.104Z,3.90
2023-03-11T10:01:33.750Z,3.98
2023-03-11T10:04:17.426Z,4.00
2023-03-11T10:06:53.120Z,4.00
2023-03-11T10:09:40.471Z,4.06
2023-03-11T10:12:41.413Z,4.10
2023-03-11T10:15:33.053Z,4.14
2023-03-11T10:18:48.855Z,4.10
2023-03-11T10:21:45.516Z,4.10
2023-03-11T10:24:45.809Z,4.00
2023-03-11T10:27:27.492Z,4.00
2023-03-11T10:30:11.445Z,4.10
2023-03-11T10:32:51.230Z,4.10
2023-03-11T10:35:30.833Z,4.10
2023-03-11T10:38:14.484Z,4.10
2023-03-11T10:40:52.111Z,4.10
2023-03-11T10:43:34.823Z,4.20
2023-03-11T10:46:28.221Z,4.30
2023-03-11T10:49:02.610Z,4.40
2023-03-11T10:51:39.946Z,4.40
2023-03-11T10:54:29.541Z,4.50
2023-03-11T10:57:07.712Z,4.50
2023-03-11T10:59:52.300Z,4.40
2023-03-11T11:02:33.607Z,4.40
2023-03-11T11:05:29.897Z,4.40
2023-03-11T11:08:16.115Z,4.50
2023-03-11T11:10:59.302Z,4.58
2023-03-11T11:13:35.623Z,4.70
2023-03-11T11:16:21.544Z,4.70
2023-03-11T11:19:05.290Z,4.80
2023-03-11T11:21:48.835Z,4.86
2023-03-11T11:24:29.046Z,4.90
2023-03-11T11:27:21.172Z,4.90
2023-03-11T11:30:19.077Z,5.12
2023-03-11T11:32:55.767Z,5.40
2023-03-11T11:35:30.160Z,5.60
2023-03-11T11:38:15.446Z,5.64
2023-03-11T11:40:50.784Z,5.70
2023-03-11T11:43:48.029Z,5.66
2023-03-11T11:46:36.711Z,5.80
2023-03-11T11:49:23.299Z,5.90
2023-03-11T11:52:05.450Z,5.80
2023-03-11T11:54:50.718Z,5.72
2023-03-11T11:57:27.052Z,5.70
2023-03-11T12:00:03.165Z,5.60
2023-03-11T12:03:02.502Z,5.72
2023-03-11T12:05:53.011Z,5.78
2023-03-11T12:08:40.262Z,5.56
2023-03-11T12:11:26.113Z,5.36
2023-03-11T12:14:12.427Z,5.20
2023-03-11T12:16:58.037Z,5.00
2023-03-11T12:19:50.333Z,4.80
2023-03-11T12:22:53.754Z,4.60
2023-03-11T12:25:38.046Z,4.40
2023-03-11T12:28:25.124Z,4.30
2023-03-11T12:31:04.605Z,4.20
2023-03-11T12:33:44.259Z,4.10
2023-03-11T12:36:35.180Z,4.34
2023-03-11T12:39:23.701Z,4.80
2023-03-11T12:42:23.049Z,5.20
2023-03-11T12:45:17.187Z,5.68
2023-03-11T12:48:33.072Z,6.00
2023-03-11T12:51:07.475Z,6.00
2023-03-11T12:53:50.766Z,5.76
2023-03-11T12:56:37.992Z,5.50
2023-03-11T12:59:53.418Z,5.30
2023-03-11T13:02:54.265Z,5.20
2023-03-11T13:05:43.405Z,5.28
2023-03-11T13:08:21.804Z,5.30
2023-03-11T13:10:57.726Z,5.30
2023-03-11T13:13:43.339Z,5.10
2023-03-11T13:16:42.561Z,4.88
2023-03-11T13:19:55.942Z,4.68
2023-03-11T13:23:25.408Z,4.60
2023-03-11T13:26:31.585Z,4.80
2023-03-11T13:29:45.392Z,4.98
2023-03-11T13:32:53.046Z,5.00
2023-03-11T13:35:46.116Z,5.00
2023-03-11T13:38:57.444Z,5.10
2023-03-11T13:41:39.580Z,4.90
2023-03-11T13:44:34.865Z,4.60
2023-03-11T13:47:15.696Z,4.40
2023-03-11T13:49:56.767Z,4.30
2023-03-11T13:52:36.370Z,4.30
2023-03-11T13:55:21.182Z,4.30
2023-03-11T13:57:58.314Z,4.30
2023-03-11T14:00:34.122Z,4.20
2023-03-11T14:03:15.257Z,4.10
2023-03-11T14:05:52.682Z,4.00
2023-03-11T14:08:31.793Z,3.98
2023-03-11T14:11:16.847Z,3.90
2023-03-11T14:13:54.183Z,3.90
2023-03-11T14:16:36.249Z,3.90
2023-03-11T14:19:18.482Z,3.82
2023-03-11T14:21:55.502Z,3.80
2023-03-11T14:24:32.795Z,3.80
2023-03-11T14:27:11.296Z,3.80
2023-03-11T14:29:48.287Z,3.80
2023-03-11T14:32:32.346Z,3.80
2023-03-11T14:35:22.481Z,3.80
2023-03-11T14:37:57.177Z,3.80
2023-03-11T14:40:35.315Z,3.80
2023-03-11T14:43:13.173Z,3.80
2023-03-11T14:45:48.537Z,3.80
2023-03-11T14:48:28.987Z,3.90
2023-03-11T14:51:07.418Z,4.10
2023-03-11T14:53:47.983Z,4.18
2023-03-11T14:56:25.983Z,4.20
2023-03-11T14:59:12.661Z,4.30
2023-03-11T15:01:49.573Z,4.20
2023-03-11T15:04:33.888Z,4.14
2023-03-11T15:07:09.171Z,4.10
2023-03-11T15:09:45.896Z,4.20
2023-03-11T15:12:38.848Z,4.20
2023-03-11T15:15:29.244Z,4.20
2023-03-11T15:18:05.694Z,4.20
2023-03-11T15:20:41.095Z,4.10
2023-03-11T15:23:25.749Z,4.00
2023-03-11T15:26:00.444Z,3.90
2023-03-11T15:28:37.437Z,3.90
2023-03-11T15:31:31.692Z,3.84
2023-03-11T15:34:32.162Z,3.90
2023-03-11T15:37:26.786Z,4.00
2023-03-11T15:40:27.947Z,4.02
2023-03-11T15:43:28.183Z,4.10
2023-03-11T15:46:05.171Z,4.10
2023-03-11T15:48:39.568Z,4.10
2023-03-11T15:51:24.258Z,4.16
2023-03-11T15:53:58.552Z,4.20
2023-03-11T15:56:33.495Z,4.16
2023-03-11T15:59:07.861Z,4.10
2023-03-11T16:01:42.128Z,4.06
2023-03-11T16:04:22.253Z,4.00
2023-03-11T16:07:07.387Z,3.90
2023-03-11T16:09:42.899Z,3.90
2023-03-11T16:12:23.304Z,3.84
2023-03-11T16:14:57.566Z,3.80
2023-03-11T16:17:48.529Z,3.80
2023-03-11T16:20:26.373Z,3.76
2023-03-11T16:23:02.612Z,3.70
2023-03-11T16:25:41.788Z,3.70
2023-03-11T16:28:18.472Z,3.60
2023-03-11T16:30:54.423Z,3.60
2023-03-11T16:33:28.727Z,3.60
2023-03-11T16:36:04.041Z,3.60
2023-03-11T16:38:49.651Z,3.60
2023-03-11T16:41:27.995Z,3.60
2023-03-11T16:44:02.416Z,3.58
2023-03-11T16:46:36.746Z,3.58
2023-03-11T16:49:11.264Z,3.60
2023-03-11T16:51:45.571Z,3.50
2023-03-11T16:54:20.042Z,3.50
2023-03-11T16:56:54.493Z,3.50
2023-03-11T16:59:29.100Z,3.50
2023-03-11T17:02:03.432Z,3.48
2023-03-11T17:04:38.557Z,3.48
2023-03-11T17:07:13.507Z,3.50
2023-03-11T17:09:47.868Z,3.40
2023-03-11T17:12:23.217Z,3.40
2023-03-11T17:14:58.002Z,3.40
2023-03-11T17:17:32.445Z,3.40
2023-03-11T17:20:09.124Z,3.40
2023-03-11T17:22:43.555Z,3.36
2023-03-11T17:25:18.130Z,3.38
2023-03-11T17:27:54.384Z,3.40
2023-03-11T17:30:36.785Z,3.38
2023-03-11T17:33:11.605Z,3.30
2023-03-11T17:35:46.375Z,3.30
2023-03-11T17:38:20.980Z,3.30
2023-03-11T17:40:55.342Z,3.30
2023-03-11T17:43:29.763Z,3.24
2023-03-11T17:46:07.388Z,3.22
2023-03-11T17:48:41.826Z,3.20
2023-03-11T17:51:19.238Z,3.18
2023-03-11T17:53:54.802Z,3.10
2023-03-11T17:56:29.481Z,3.00
2023-03-11T17:59:03.849Z,3.00
2023-03-11T18:01:38.385Z,2.90
2023-03-11T18:04:12.757Z,2.80
2023-03-11T18:06:47.236Z,2.80
2023-03-11T18:09:21.873Z,2.74
2023-03-11T18:11:56.200Z,2.70
2023-03-11T18:14:30.680Z,2.60
2023-03-11T18:17:05.092Z,2.56
2023-03-11T18:19:40.294Z,2.50
2023-03-11T18:22:15.639Z,2.50
2023-03-11T18:24:49.870Z,2.40
2023-03-11T18:27:24.718Z,2.40
2023-03-11T18:30:00.430Z,2.30
2023-03-11T18:32:35.123Z,2.30
2023-03-11T18:35:11.517Z,2.20
2023-03-11T18:37:46.863Z,2.20
2023-03-11T18:40:21.869Z,2.10
2023-03-11T18:42:58.562Z,2.10
2023-03-11T18:45:32.980Z,2.00
2023-03-11T18:48:07.769Z,2.00
2023-03-11T18:50:42.321Z,1.90
2023-03-11T18:53:16.947Z,1.90
2023-03-11T18:55:51.542Z,1.90
2023-03-11T18:58:25.948Z,1.88
2023-03-11T19:01:07.364Z,1.80
2023-03-11T19:03:41.680Z,1.80
2023-03-11T19:06:17.939Z,1.80
2023-03-11T19:08:52.531Z,1.80
2023-03-11T19:11:27.833Z,1.80
2023-03-11T19:14:02.347Z,1.80
2023-03-11T19:16:36.636Z,1.86
2023-03-11T19:19:12.031Z,1.90
2023-03-11T19:21:47.892Z,1.88
2023-03-11T19:24:22.355Z,1.90
2023-03-11T19:26:56.688Z,1.90
2023-03-11T19:29:30.973Z,1.90
2023-03-11T19:32:05.573Z,1.90
2023-03-11T19:34:40.442Z,1.88
2023-03-11T19:37:17.223Z,1.84
2023-03-11T19:39:51.707Z,1.80
2023-03-11T19:42:26.013Z,1.80
2023-03-11T19:45:00.451Z,1.80
2023-03-11T19:47:35.040Z,1.72
2023-03-11T19:50:11.938Z,1.70
2023-03-11T19:52:46.441Z,1.70
2023-03-11T19:55:21.216Z,1.70
2023-03-11T19:57:55.889Z,1.70
2023-03-11T20:00:30.664Z,1.70
2023-03-11T20:03:05.183Z,1.70
2023-03-11T20:05:42.418Z,1.68
2023-03-11T20:08:20.096Z,1.62
2023-03-11T20:11:01.799Z,1.60
2023-03-11T20:13:37.001Z,1.60
2023-03-11T20:16:18.364Z,1.60
2023-03-11T20:18:55.226Z,1.54
2023-03-11T20:23:49.990Z,1.50
2023-03-11T20:26:25.108Z,1.48
2023-03-11T20:29:01.406Z,1.50
2023-03-11T20:31:38.058Z,1.50
2023-03-11T20:34:16.499Z,1.42
2023-03-11T20:36:52.532Z,1.40
2023-03-11T20:39:28.292Z,1.38
2023-03-11T20:42:06.254Z,1.40
2023-03-11T20:44:41.223Z,1.38
2023-03-11T20:47:15.673Z,1.30
2023-03-11T20:49:52.167Z,1.30
2023-03-11T20:52:27.270Z,1.30
2023-03-11T20:55:01.567Z,1.24
2023-03-11T20:57:36.061Z,1.20
2023-03-11T21:00:15.768Z,1.20
2023-03-11T21:02:50.300Z,1.20
2023-03-11T21:05:25.212Z,1.20
2023-03-11T21:07:59.482Z,1.12
2023-03-11T21:10:36.219Z,1.10
2023-03-11T21:13:11.293Z,1.10
2023-03-11T21:15:46.209Z,1.10
2023-03-11T21:18:20.875Z,1.10
2023-03-11T21:20:55.480Z,1.10
2023-03-11T21:23:29.971Z,1.00
2023-03-11T21:26:06.743Z,1.00
2023-03-11T21:28:46.419Z,0.98
2023-03-11T21:31:27.823Z,1.00
2023-03-11T21:34:03.971Z,1.00
2023-03-11T21:36:38.726Z,1.00
2023-03-11T21:39:14.700Z,0.90
2023-03-11T21:41:49.005Z,0.90
2023-03-11T21:44:23.872Z,0.90
2023-03-11T21:46:58.347Z,0.90
2023-03-11T21:49:32.903Z,0.84
2023-03-11T21:52:10.985Z,0.86
2023-03-11T21:54:45.382Z,0.80
2023-03-11T21:57:19.730Z,0.80
2023-03-11T21:59:58.153Z,0.74
2023-03-11T22:02:40.421Z,0.70
2023-03-11T22:05:29.647Z,0.70
2023-03-11T22:08:05.056Z,0.70
2023-03-11T22:10:40.182Z,0.70
2023-03-11T22:13:14.555Z,0.70
2023-03-11T22:15:49.122Z,0.60
2023-03-11T22:18:23.483Z,0.60
2023-03-11T22:21:00.948Z,0.60
2023-03-11T22:23:36.230Z,0.60
2023-03-11T22:26:10.777Z,0.70
2023-03-11T22:28:45.188Z,0.62
2023-03-11T22:31:20.411Z,0.60
2023-03-11T22:33:55.479Z,0.60
2023-03-11T22:36:30.175Z,0.60
2023-03-11T22:39:04.675Z,0.60
2023-03-11T22:41:39.234Z,0.60
2023-03-11T22:44:13.847Z,0.60
2023-03-11T22:46:48.336Z,0.60
2023-03-11T22:49:23.117Z,0.66
2023-03-11T22:51:57.420Z,0.70
2023-03-11T22:54:31.946Z,0.70
2023-03-11T22:58:08.975Z,0.70
2023-03-11T23:00:44.751Z,0.60
2023-03-11T23:03:19.231Z,0.60
2023-03-11T23:05:53.464Z,0.60
2023-03-11T23:08:28.056Z,0.60
2023-03-11T23:11:08.495Z,0.54
2023-03-11T23:13:44.661Z,0.50
2023-03-11T23:16:21.645Z,0.50
2023-03-11T23:18:59.072Z,0.44
2023-03-11T23:21:35.860Z,0.40
2023-03-11T23:24:12.297Z,0.40
2023-03-11T23:26:46.663Z,0.40
2023-03-11T23:29:21.608Z,0.40
2023-03-11T23:31:55.796Z,0.38
2023-03-11T23:34:30.683Z,0.40
2023-03-11T23:37:05.597Z,0.40
2023-03-11T23:39:40.029Z,0.40
2023-03-11T23:42:25.036Z,0.40
2023-03-11T23:45:00.052Z,0.40
2023-03-11T23:47:34.179Z,0.40
2023-03-11T23:50:10.255Z,0.44
2023-03-11T23:52:44.724Z,0.48
2023-03-11T23:55:19.378Z,0.40
2023-03-11T23:57:53.457Z,0.40
